createdAt,value
2019-02-23T00:00:56.141Z,1021.16
2019-02-23T00:01:56.125Z,1021.16
2019-02-23T00:02:56.113Z,1021.15
2019-02-23T00:03:56.100Z,1021.11
2019-02-23T00:04:56.090Z,1021.09
2019-02-23T00:05:56.077Z,1021.12
2019-02-23T00:06:56.064Z,1021.13
2019-02-23T00:07:56.049Z,1021.15
2019-02-23T00:08:56.037Z,1021.14
2019-02-23T00:09:56.025Z,1021.16
2019-02-23T00:10:56.013Z,1021.17
2019-02-23T00:11:55.999Z,1021.18
2019-02-23T00:12:55.988Z,1021.21
2019-02-23T00:13:55.975Z,1021.23
2019-02-23T00:14:55.963Z,1021.27
2019-02-23T00:15:55.949Z,1021.31
2019-02-23T00:16:55.937Z,1021.26
2019-02-23T00:17:55.926Z,1021.30
2019-02-23T00:18:55.912Z,1021.31
2019-02-23T00:19:55.899Z,1021.32
2019-02-23T00:20:55.887Z,1021.30
2019-02-23T00:21:55.875Z,1021.39
2019-02-23T00:22:55.862Z,1021.29
2019-02-23T00:23:55.849Z,1021.33
2019-02-23T00:24:55.837Z,1021.32
2019-02-23T00:25:55.825Z,1021.32
2019-02-23T00:26:55.813Z,1021.29
2019-02-23T00:27:55.799Z,1021.28
2019-02-23T00:28:55.789Z,1021.21
2019-02-23T00:29:55.776Z,1021.23
2019-02-23T00:30:55.764Z,1021.23
2019-02-23T00:31:55.749Z,1021.15
2019-02-23T00:32:55.738Z,1021.14
2019-02-23T00:33:55.725Z,1021.19
2019-02-23T00:34:55.712Z,1021.14
2019-02-23T00:35:55.699Z,1021.13
2019-02-23T00:36:55.686Z,1021.14
2019-02-23T00:37:55.674Z,1021.09
2019-02-23T00:38:55.663Z,1021.09
2019-02-23T00:39:55.648Z,1021.09
2019-02-23T00:40:55.635Z,1021.06
2019-02-23T00:41:55.623Z,1021.07
2019-02-23T00:42:55.611Z,1021.07
2019-02-23T00:43:55.598Z,1021.11
2019-02-23T00:44:55.587Z,1021.07
2019-02-23T00:45:55.573Z,1021.14
2019-02-23T00:46:55.559Z,1021.10
2019-02-23T00:47:55.546Z,1021.12
2019-02-23T00:48:55.533Z,1021.07
2019-02-23T00:49:55.521Z,1021.08
2019-02-23T00:50:55.508Z,1021.07
2019-02-23T00:51:55.495Z,1021.05
2019-02-23T00:52:55.485Z,1021.02
2019-02-23T00:53:55.471Z,1021.04
2019-02-23T00:54:55.457Z,1021.01
2019-02-23T00:55:55.443Z,1021.03
2019-02-23T00:56:55.431Z,1021.01
2019-02-23T00:57:55.418Z,1021.01
2019-02-23T00:58:55.406Z,1021.02
2019-02-23T00:59:55.392Z,1021.01
2019-02-23T01:00:55.378Z,1021.05
2019-02-23T01:01:55.367Z,1021.05
2019-02-23T01:02:55.359Z,1021.06
2019-02-23T01:03:55.341Z,1021.04
2019-02-23T01:04:55.329Z,1021.08
2019-02-23T01:05:55.317Z,1021.04
2019-02-23T01:06:55.306Z,1021.05
2019-02-23T01:07:55.291Z,1021.04
2019-02-23T01:08:55.367Z,1021.01
2019-02-23T01:09:55.266Z,1021.03
2019-02-23T01:10:58.082Z,1020.98
2019-02-23T01:11:55.240Z,1021.00
2019-02-23T01:12:55.229Z,1020.94
2019-02-23T01:13:55.215Z,1020.99
2019-02-23T01:14:55.203Z,1020.96
2019-02-23T01:15:55.189Z,1020.92
2019-02-23T01:16:55.177Z,1020.96
2019-02-23T01:17:55.165Z,1020.96
2019-02-23T01:18:55.151Z,1020.96
2019-02-23T01:19:55.138Z,1020.97
2019-02-23T01:20:55.126Z,1020.97
2019-02-23T01:21:55.194Z,1020.99
2019-02-23T01:22:55.101Z,1021.02
2019-02-23T01:23:55.088Z,1021.03
2019-02-23T01:24:55.075Z,1020.99
2019-02-23T01:25:55.063Z,1021.00
2019-02-23T01:26:55.057Z,1021.01
2019-02-23T01:27:55.038Z,1020.99
2019-02-23T01:28:55.027Z,1021.00
2019-02-23T01:29:55.012Z,1020.97
2019-02-23T01:30:55.000Z,1020.95
2019-02-23T01:31:54.987Z,1020.99
2019-02-23T01:32:54.975Z,1020.97
2019-02-23T01:33:54.962Z,1020.97
2019-02-23T01:34:54.950Z,1020.96
2019-02-23T01:35:54.936Z,1020.90
2019-02-23T01:36:54.925Z,1020.92
2019-02-23T01:37:54.911Z,1020.91
2019-02-23T01:38:54.899Z,1020.87
2019-02-23T01:39:54.887Z,1020.85
2019-02-23T01:40:54.873Z,1020.88
2019-02-23T01:41:54.863Z,1020.83
2019-02-23T01:42:54.849Z,1020.84
2019-02-23T01:43:54.836Z,1020.83
2019-02-23T01:44:54.824Z,1020.80
2019-02-23T01:45:54.810Z,1020.80
2019-02-23T01:46:54.798Z,1020.77
2019-02-23T01:47:54.785Z,1020.78
2019-02-23T01:48:54.773Z,1020.83
2019-02-23T01:49:58.829Z,1020.81
2019-02-23T01:50:54.748Z,1020.81
2019-02-23T01:51:54.735Z,1020.83
2019-02-23T01:52:54.724Z,1020.82
2019-02-23T01:53:54.712Z,1020.80
2019-02-23T01:54:54.698Z,1020.77
2019-02-23T01:55:54.684Z,1020.82
2019-02-23T01:56:54.676Z,1020.82
2019-02-23T01:57:54.661Z,1020.78
2019-02-23T01:58:54.647Z,1020.82
2019-02-23T01:59:54.633Z,1020.76
2019-02-23T02:00:54.621Z,1020.76
2019-02-23T02:01:54.609Z,1020.77
2019-02-23T02:02:54.598Z,1020.74
2019-02-23T02:03:54.583Z,1020.73
2019-02-23T02:04:54.570Z,1020.68
2019-02-23T02:05:54.557Z,1020.67
2019-02-23T02:06:54.635Z,1020.65
2019-02-23T02:07:54.534Z,1020.66
2019-02-23T02:08:54.523Z,1020.71
2019-02-23T02:09:54.507Z,1020.70
2019-02-23T02:10:54.496Z,1020.75
2019-02-23T02:11:54.482Z,1020.73
2019-02-23T02:12:54.468Z,1020.72
2019-02-23T02:13:54.456Z,1020.71
2019-02-23T02:14:54.443Z,1020.69
2019-02-23T02:15:54.429Z,1020.73
2019-02-23T02:16:54.419Z,1020.73
2019-02-23T02:17:54.406Z,1020.76
2019-02-23T02:18:54.392Z,1020.73
2019-02-23T02:19:54.381Z,1020.70
2019-02-23T02:20:54.366Z,1020.70
2019-02-23T02:21:54.353Z,1020.68
2019-02-23T02:22:54.342Z,1020.69
2019-02-23T02:23:54.327Z,1020.67
2019-02-23T02:24:54.315Z,1020.64
2019-02-23T02:25:54.305Z,1020.67
2019-02-23T02:26:54.289Z,1020.64
2019-02-23T02:27:54.276Z,1020.64
2019-02-23T02:28:54.263Z,1020.63
2019-02-23T02:29:54.251Z,1020.62
2019-02-23T02:30:54.238Z,1020.63
2019-02-23T02:31:54.224Z,1020.65
2019-02-23T02:32:54.211Z,1020.66
2019-02-23T02:33:54.199Z,1020.70
2019-02-23T02:34:54.196Z,1020.69
2019-02-23T02:35:54.172Z,1020.64
2019-02-23T02:36:54.160Z,1020.65
2019-02-23T02:37:54.147Z,1020.65
2019-02-23T02:38:54.134Z,1020.71
2019-02-23T02:39:54.121Z,1020.68
2019-02-23T02:40:54.109Z,1020.72
2019-02-23T02:41:54.096Z,1020.70
2019-02-23T02:42:54.082Z,1020.76
2019-02-23T02:43:54.069Z,1020.78
2019-02-23T02:44:54.055Z,1020.78
2019-02-23T02:45:54.044Z,1020.80
2019-02-23T02:46:54.030Z,1020.77
2019-02-23T02:47:54.018Z,1020.76
2019-02-23T02:48:54.005Z,1020.71
2019-02-23T02:49:53.991Z,1020.76
2019-02-23T02:50:53.978Z,1020.70
2019-02-23T02:51:53.965Z,1020.70
2019-02-23T02:52:53.952Z,1020.70
2019-02-23T02:53:53.942Z,1020.73
2019-02-23T02:54:53.926Z,1020.71
2019-02-23T02:55:53.912Z,1020.77
2019-02-23T02:56:53.899Z,1020.75
2019-02-23T02:57:53.887Z,1020.72
2019-02-23T02:58:53.983Z,1020.74
2019-02-23T02:59:53.863Z,1020.73
2019-02-23T03:00:53.849Z,1020.76
2019-02-23T03:01:53.834Z,1020.72
2019-02-23T03:02:53.822Z,1020.79
2019-02-23T03:03:53.809Z,1020.82
2019-02-23T03:04:53.795Z,1020.83
2019-02-23T03:05:53.788Z,1020.85
2019-02-23T03:06:53.825Z,1020.87
2019-02-23T03:07:53.757Z,1020.84
2019-02-23T03:08:53.747Z,1020.86
2019-02-23T03:09:53.729Z,1020.87
2019-02-23T03:10:53.729Z,1020.83
2019-02-23T03:11:53.702Z,1020.86
2019-02-23T03:12:53.689Z,1020.81
2019-02-23T03:13:53.692Z,1020.84
2019-02-23T03:14:53.665Z,1020.83
2019-02-23T03:15:53.649Z,1020.85
2019-02-23T03:16:53.637Z,1020.86
2019-02-23T03:17:53.624Z,1020.84
2019-02-23T03:18:53.611Z,1020.82
2019-02-23T03:19:53.600Z,1020.84
2019-02-23T03:20:53.584Z,1020.86
2019-02-23T03:21:53.571Z,1020.84
2019-02-23T03:22:53.559Z,1020.81
2019-02-23T03:23:53.544Z,1020.81
2019-02-23T03:24:53.531Z,1020.82
2019-02-23T03:25:53.520Z,1020.79
2019-02-23T03:26:53.505Z,1020.79
2019-02-23T03:27:53.495Z,1020.78
2019-02-23T03:28:53.480Z,1020.80
2019-02-23T03:29:53.467Z,1020.82
2019-02-23T03:30:53.457Z,1020.84
2019-02-23T03:31:53.443Z,1020.88
2019-02-23T03:32:53.427Z,1020.86
2019-02-23T03:33:53.419Z,1020.87
2019-02-23T03:34:53.400Z,1020.89
2019-02-23T03:35:53.385Z,1020.88
2019-02-23T03:36:53.376Z,1020.80
2019-02-23T03:37:53.361Z,1020.82
2019-02-23T03:38:53.347Z,1020.82
2019-02-23T03:39:53.341Z,1020.83
2019-02-23T03:40:53.320Z,1020.84
2019-02-23T03:41:53.307Z,1020.81
2019-02-23T03:42:53.299Z,1020.81
2019-02-23T03:43:53.281Z,1020.82
2019-02-23T03:44:53.267Z,1020.79
2019-02-23T03:45:53.254Z,1020.76
2019-02-23T03:46:53.241Z,1020.73
2019-02-23T03:47:53.227Z,1020.74
2019-02-23T03:48:53.215Z,1020.75
2019-02-23T03:49:53.205Z,1020.75
2019-02-23T03:50:53.188Z,1020.72
2019-02-23T03:51:53.175Z,1020.74
2019-02-23T03:52:53.163Z,1020.79
2019-02-23T03:53:53.148Z,1020.76
2019-02-23T03:54:53.135Z,1020.74
2019-02-23T03:55:53.121Z,1020.75
2019-02-23T03:56:53.107Z,1020.73
2019-02-23T03:57:53.097Z,1020.72
2019-02-23T03:58:53.081Z,1020.73
2019-02-23T03:59:53.068Z,1020.70
2019-02-23T04:00:53.057Z,1020.73
2019-02-23T04:01:53.041Z,1020.69
2019-02-23T04:02:53.029Z,1020.70
2019-02-23T04:03:53.014Z,1020.72
2019-02-23T04:04:53.001Z,1020.74
2019-02-23T04:05:52.989Z,1020.70
2019-02-23T04:06:52.976Z,1020.73
2019-02-23T04:07:52.960Z,1020.74
2019-02-23T04:08:52.948Z,1020.77
2019-02-23T04:09:52.940Z,1020.76
2019-02-23T04:10:52.922Z,1020.76
2019-02-23T04:11:52.907Z,1020.76
2019-02-23T04:12:52.895Z,1020.79
2019-02-23T04:13:52.884Z,1020.80
2019-02-23T04:14:52.868Z,1020.78
2019-02-23T04:15:52.854Z,1020.78
2019-02-23T04:16:52.840Z,1020.76
2019-02-23T04:17:52.827Z,1020.77
2019-02-23T04:18:52.814Z,1020.77
2019-02-23T04:19:52.805Z,1020.78
2019-02-23T04:21:01.131Z,1020.79
2019-02-23T04:21:52.774Z,1020.79
2019-02-23T04:22:52.762Z,1020.81
2019-02-23T04:23:55.170Z,1020.78
2019-02-23T04:24:52.734Z,1020.75
2019-02-23T04:25:52.721Z,1020.77
2019-02-23T04:26:52.708Z,1020.76
2019-02-23T04:27:52.730Z,1020.75
2019-02-23T04:28:52.684Z,1020.76
2019-02-23T04:29:52.667Z,1020.80
2019-02-23T04:30:52.657Z,1020.77
2019-02-23T04:31:52.641Z,1020.75
2019-02-23T04:32:52.629Z,1020.78
2019-02-23T04:33:52.613Z,1020.73
2019-02-23T04:34:52.600Z,1020.74
2019-02-23T04:35:52.586Z,1020.74
2019-02-23T04:36:52.574Z,1020.74
2019-02-23T04:37:52.561Z,1020.78
2019-02-23T04:38:52.547Z,1020.81
2019-02-23T04:39:52.534Z,1020.81
2019-02-23T04:40:52.525Z,1020.80
2019-02-23T04:41:52.505Z,1020.81
2019-02-23T04:42:52.493Z,1020.80
2019-02-23T04:43:52.479Z,1020.80
2019-02-23T04:44:52.465Z,1020.81
2019-02-23T04:45:52.455Z,1020.82
2019-02-23T04:46:52.440Z,1020.80
2019-02-23T04:47:52.425Z,1020.78
2019-02-23T04:48:52.412Z,1020.76
2019-02-23T04:49:52.398Z,1020.74
2019-02-23T04:50:52.384Z,1020.75
2019-02-23T04:51:52.370Z,1020.73
2019-02-23T04:52:52.356Z,1020.68
2019-02-23T04:53:52.355Z,1020.70
2019-02-23T04:54:52.329Z,1020.71
2019-02-23T04:55:52.315Z,1020.70
2019-02-23T04:56:52.301Z,1020.67
2019-02-23T04:57:52.288Z,1020.68
2019-02-23T04:58:52.276Z,1020.64
2019-02-23T04:59:52.260Z,1020.65
2019-02-23T05:00:52.246Z,1020.67
2019-02-23T05:01:52.233Z,1020.67
2019-02-23T05:02:52.221Z,1020.70
2019-02-23T05:03:52.205Z,1020.69
2019-02-23T05:04:52.191Z,1020.71
2019-02-23T05:05:52.178Z,1020.74
2019-02-23T05:06:52.166Z,1020.69
2019-02-23T05:07:52.149Z,1020.69
2019-02-23T05:08:52.136Z,1020.69
2019-02-23T05:09:52.123Z,1020.74
2019-02-23T05:10:52.109Z,1020.74
2019-02-23T05:11:52.094Z,1020.69
2019-02-23T05:12:52.108Z,1020.70
2019-02-23T05:13:52.069Z,1020.72
2019-02-23T05:14:52.052Z,1020.75
2019-02-23T05:15:52.040Z,1020.74
2019-02-23T05:16:52.025Z,1020.72
2019-02-23T05:17:52.012Z,1020.71
2019-02-23T05:18:51.997Z,1020.71
2019-02-23T05:19:51.984Z,1020.75
2019-02-23T05:20:51.969Z,1020.74
2019-02-23T05:21:51.956Z,1020.69
2019-02-23T05:22:51.942Z,1020.70
2019-02-23T05:23:51.928Z,1020.72
2019-02-23T05:24:53.494Z,1020.70
2019-02-23T05:25:51.900Z,1020.75
2019-02-23T05:26:51.893Z,1020.78
2019-02-23T05:27:51.879Z,1020.76
2019-02-23T05:28:51.859Z,1020.79
2019-02-23T05:29:51.846Z,1020.77
2019-02-23T05:30:51.832Z,1020.76
2019-02-23T05:31:51.818Z,1020.79
2019-02-23T05:32:51.803Z,1020.81
2019-02-23T05:33:51.791Z,1020.80
2019-02-23T05:34:51.777Z,1020.81
2019-02-23T05:35:51.767Z,1020.84
2019-02-23T05:36:51.747Z,1020.84
2019-02-23T05:37:51.734Z,1020.84
2019-02-23T05:38:51.721Z,1020.85
2019-02-23T05:39:51.706Z,1020.87
2019-02-23T05:40:51.693Z,1020.85
2019-02-23T05:41:51.678Z,1020.89
2019-02-23T05:43:00.346Z,1020.86
2019-02-23T05:43:51.650Z,1020.88
2019-02-23T05:44:51.637Z,1020.89
2019-02-23T05:45:51.625Z,1020.93
2019-02-23T05:46:51.611Z,1020.97
2019-02-23T05:47:51.601Z,1020.99
2019-02-23T05:48:51.584Z,1021.00
2019-02-23T05:49:51.568Z,1021.00
2019-02-23T05:50:51.555Z,1021.01
2019-02-23T05:51:51.540Z,1021.07
2019-02-23T05:52:51.527Z,1021.07
2019-02-23T05:53:51.514Z,1021.07
2019-02-23T05:54:51.502Z,1021.14
2019-02-23T05:55:51.485Z,1021.11
2019-02-23T05:56:51.472Z,1021.14
2019-02-23T05:57:51.458Z,1021.15
2019-02-23T05:58:51.445Z,1021.22
2019-02-23T05:59:51.430Z,1021.22
2019-02-23T06:00:51.417Z,1021.23
2019-02-23T06:01:51.404Z,1021.25
2019-02-23T06:02:51.391Z,1021.21
2019-02-23T06:03:51.377Z,1021.25
2019-02-23T06:04:51.363Z,1021.25
2019-02-23T06:05:51.350Z,1021.30
2019-02-23T06:06:51.336Z,1021.34
2019-02-23T06:07:51.321Z,1021.34
2019-02-23T06:08:51.310Z,1021.29
2019-02-23T06:09:51.295Z,1021.34
2019-02-23T06:10:51.283Z,1021.29
2019-02-23T06:11:51.268Z,1021.27
2019-02-23T06:12:51.254Z,1021.29
2019-02-23T06:13:51.241Z,1021.25
2019-02-23T06:14:51.228Z,1021.27
2019-02-23T06:15:51.215Z,1021.25
2019-02-23T06:16:51.200Z,1021.19
2019-02-23T06:17:51.188Z,1021.22
2019-02-23T06:18:51.172Z,1021.22
2019-02-23T06:19:51.162Z,1021.22
2019-02-23T06:20:51.146Z,1021.20
2019-02-23T06:21:54.160Z,1021.19
2019-02-23T06:22:51.120Z,1021.17
2019-02-23T06:23:51.105Z,1021.15
2019-02-23T06:24:51.090Z,1021.13
2019-02-23T06:25:51.077Z,1021.13
2019-02-23T06:26:51.064Z,1021.11
2019-02-23T06:27:51.050Z,1021.09
2019-02-23T06:28:51.035Z,1021.12
2019-02-23T06:29:51.023Z,1021.07
2019-02-23T06:30:51.011Z,1021.11
2019-02-23T06:31:51.011Z,1021.10
2019-02-23T06:32:50.979Z,1021.11
2019-02-23T06:33:50.966Z,1021.15
2019-02-23T06:34:50.952Z,1021.15
2019-02-23T06:35:50.938Z,1021.19
2019-02-23T06:36:50.923Z,1021.15
2019-02-23T06:37:53.329Z,1021.17
2019-02-23T06:38:50.897Z,1021.16
2019-02-23T06:39:50.884Z,1021.19
2019-02-23T06:40:50.868Z,1021.24
2019-02-23T06:41:50.855Z,1021.22
2019-02-23T06:42:50.841Z,1021.20
2019-02-23T06:43:50.829Z,1021.27
2019-02-23T06:44:50.813Z,1021.28
2019-02-23T06:45:50.799Z,1021.31
2019-02-23T06:46:50.784Z,1021.30
2019-02-23T06:47:50.770Z,1021.36
2019-02-23T06:48:50.756Z,1021.35
2019-02-23T06:49:50.742Z,1021.37
2019-02-23T06:50:50.730Z,1021.40
2019-02-23T06:51:50.715Z,1021.43
2019-02-23T06:52:50.700Z,1021.45
2019-02-23T06:53:50.690Z,1021.43
2019-02-23T06:54:50.674Z,1021.42
2019-02-23T06:55:50.658Z,1021.42
2019-02-23T06:56:50.644Z,1021.43
2019-02-23T06:57:50.631Z,1021.42
2019-02-23T06:58:50.617Z,1021.37
2019-02-23T06:59:50.603Z,1021.39
2019-02-23T07:00:50.588Z,1021.43
2019-02-23T07:01:50.575Z,1021.43
2019-02-23T07:02:50.561Z,1021.47
2019-02-23T07:03:50.546Z,1021.45
2019-02-23T07:04:50.535Z,1021.39
2019-02-23T07:05:50.519Z,1021.44
2019-02-23T07:06:50.508Z,1021.43
2019-02-23T07:07:50.492Z,1021.39
2019-02-23T07:08:50.477Z,1021.43
2019-02-23T07:09:50.462Z,1021.41
2019-02-23T07:10:50.448Z,1021.41
2019-02-23T07:11:50.438Z,1021.44
2019-02-23T07:12:50.419Z,1021.42
2019-02-23T07:13:50.406Z,1021.42
2019-02-23T07:14:50.394Z,1021.39
2019-02-23T07:15:50.378Z,1021.36
2019-02-23T07:16:50.369Z,1021.37
2019-02-23T07:17:50.348Z,1021.35
2019-02-23T07:18:50.334Z,1021.40
2019-02-23T07:19:50.322Z,1021.35
2019-02-23T07:20:50.306Z,1021.35
2019-02-23T07:21:50.291Z,1021.35
2019-02-23T07:22:50.281Z,1021.37
2019-02-23T07:23:50.269Z,1021.37
2019-02-23T07:24:50.249Z,1021.34
2019-02-23T07:25:50.235Z,1021.31
2019-02-23T07:26:50.222Z,1021.35
2019-02-23T07:27:50.208Z,1021.37
2019-02-23T07:28:50.192Z,1021.38
2019-02-23T07:29:50.179Z,1021.39
2019-02-23T07:30:50.164Z,1021.40
2019-02-23T07:31:50.149Z,1021.37
2019-02-23T07:32:50.137Z,1021.41
2019-02-23T07:33:50.140Z,1021.35
2019-02-23T07:34:50.108Z,1021.37
2019-02-23T07:35:50.093Z,1021.35
2019-02-23T07:36:50.079Z,1021.37
2019-02-23T07:37:50.073Z,1021.38
2019-02-23T07:38:50.051Z,1021.40
2019-02-23T07:39:50.038Z,1021.38
2019-02-23T07:40:50.023Z,1021.42
2019-02-23T07:41:50.009Z,1021.31
2019-02-23T07:42:50.002Z,1021.31
2019-02-23T07:43:49.981Z,1021.31
2019-02-23T07:44:49.969Z,1021.32
2019-02-23T07:45:49.954Z,1021.34
2019-02-23T07:46:49.941Z,1021.32
2019-02-23T07:47:49.926Z,1021.34
2019-02-23T07:48:49.913Z,1021.31
2019-02-23T07:49:49.899Z,1021.28
2019-02-23T07:50:49.885Z,1021.26
2019-02-23T07:51:49.873Z,1021.22
2019-02-23T07:52:49.858Z,1021.20
2019-02-23T07:53:49.844Z,1021.21
2019-02-23T07:54:49.832Z,1021.21
2019-02-23T07:55:49.818Z,1021.19
2019-02-23T07:56:49.812Z,1021.11
2019-02-23T07:57:49.797Z,1021.14
2019-02-23T07:58:49.781Z,1021.13
2019-02-23T07:59:49.768Z,1021.11
2019-02-23T08:00:49.756Z,1021.16
2019-02-23T08:01:49.744Z,1021.16
2019-02-23T08:02:49.734Z,1021.20
2019-02-23T08:03:49.721Z,1021.21
2019-02-23T08:04:49.710Z,1021.17
2019-02-23T08:05:49.699Z,1021.09
2019-02-23T08:06:49.689Z,1021.13
2019-02-23T08:07:49.677Z,1021.11
2019-02-23T08:08:49.665Z,1021.17
2019-02-23T08:09:49.656Z,1021.19
2019-02-23T08:10:49.646Z,1021.19
2019-02-23T08:11:49.634Z,1021.20
2019-02-23T08:12:49.624Z,1021.22
2019-02-23T08:13:49.618Z,1021.21
2019-02-23T08:14:49.604Z,1021.26
2019-02-23T08:15:49.618Z,1021.28
2019-02-23T08:16:49.583Z,1021.28
2019-02-23T08:17:49.574Z,1021.23
2019-02-23T08:18:49.563Z,1021.17
2019-02-23T08:19:49.553Z,1021.24
2019-02-23T08:20:49.543Z,1021.25
2019-02-23T08:21:49.534Z,1021.17
2019-02-23T08:22:49.525Z,1021.15
2019-02-23T08:23:49.514Z,1021.19
2019-02-23T08:24:49.507Z,1021.23
2019-02-23T08:25:49.497Z,1021.23
2019-02-23T08:26:49.489Z,1021.25
2019-02-23T08:27:49.478Z,1021.22
2019-02-23T08:28:49.468Z,1021.20
2019-02-23T08:29:49.459Z,1021.22
2019-02-23T08:30:49.451Z,1021.23
2019-02-23T08:31:49.441Z,1021.23
2019-02-23T08:32:49.433Z,1021.27
2019-02-23T08:33:49.425Z,1021.29
2019-02-23T08:34:49.597Z,1021.30
2019-02-23T08:35:49.412Z,1021.30
2019-02-23T08:36:49.401Z,1021.26
2019-02-23T08:37:49.392Z,1021.27
2019-02-23T08:38:49.391Z,1021.29
2019-02-23T08:39:49.558Z,1021.33
2019-02-23T08:40:49.369Z,1021.31
2019-02-23T08:41:49.362Z,1021.36
2019-02-23T08:42:49.355Z,1021.31
2019-02-23T08:43:49.347Z,1021.22
2019-02-23T08:44:49.341Z,1021.22
2019-02-23T08:45:49.334Z,1021.17
2019-02-23T08:46:49.331Z,1021.20
2019-02-23T08:47:49.321Z,1021.19
2019-02-23T08:48:49.315Z,1021.07
2019-02-23T08:49:49.309Z,1021.14
2019-02-23T08:50:49.302Z,1021.12
2019-02-23T08:51:49.295Z,1021.08
2019-02-23T08:52:50.356Z,1021.08
2019-02-23T08:53:49.282Z,1021.10
2019-02-23T08:54:49.277Z,1021.12
2019-02-23T08:55:49.270Z,1021.11
2019-02-23T08:56:49.265Z,1021.12
2019-02-23T08:57:49.257Z,1021.18
2019-02-23T08:58:49.250Z,1021.14
2019-02-23T08:59:49.244Z,1021.11
2019-02-23T09:00:49.237Z,1021.15
2019-02-23T09:01:49.231Z,1021.13
2019-02-23T09:02:49.226Z,1021.12
2019-02-23T09:03:49.844Z,1021.12
2019-02-23T09:04:49.213Z,1021.08
2019-02-23T09:05:49.207Z,1021.10
2019-02-23T09:06:49.202Z,1021.04
2019-02-23T09:07:49.196Z,1021.09
2019-02-23T09:08:49.191Z,1021.10
2019-02-23T09:09:49.186Z,1021.15
2019-02-23T09:10:49.182Z,1021.16
2019-02-23T09:11:49.176Z,1021.10
2019-02-23T09:12:49.171Z,1021.07
2019-02-23T09:13:49.167Z,1021.09
2019-02-23T09:14:49.162Z,1021.08
2019-02-23T09:15:49.158Z,1021.12
2019-02-23T09:16:49.154Z,1021.07
2019-02-23T09:17:49.150Z,1021.11
2019-02-23T09:18:49.146Z,1021.12
2019-02-23T09:19:49.148Z,1021.11
2019-02-23T09:20:51.705Z,1021.08
2019-02-23T09:21:49.134Z,1021.04
2019-02-23T09:22:59.509Z,1021.07
2019-02-23T09:23:49.126Z,1021.11
2019-02-23T09:24:49.122Z,1021.06
2019-02-23T09:25:49.118Z,1021.10
2019-02-23T09:26:49.115Z,1021.06
2019-02-23T09:27:49.111Z,1021.03
2019-02-23T09:28:49.108Z,1021.10
2019-02-23T09:29:49.106Z,1021.05
2019-02-23T09:30:49.104Z,1021.07
2019-02-23T09:31:49.098Z,1021.07
2019-02-23T09:32:49.095Z,1021.06
2019-02-23T09:33:49.092Z,1021.10
2019-02-23T09:34:49.089Z,1021.06
2019-02-23T09:35:49.085Z,1021.06
2019-02-23T09:36:49.082Z,1021.09
2019-02-23T09:37:49.079Z,1021.11
2019-02-23T09:38:49.081Z,1021.11
2019-02-23T09:39:49.073Z,1021.08
2019-02-23T09:40:49.070Z,1021.07
2019-02-23T09:41:49.068Z,1021.07
2019-02-23T09:42:49.065Z,1021.09
2019-02-23T09:43:49.064Z,1021.14
2019-02-23T09:44:49.060Z,1021.18
2019-02-23T09:45:49.065Z,1021.13
2019-02-23T09:46:49.055Z,1021.17
2019-02-23T09:47:49.052Z,1021.20
2019-02-23T09:48:49.048Z,1021.19
2019-02-23T09:49:49.046Z,1021.18
2019-02-23T09:50:49.046Z,1021.17
2019-02-23T09:51:49.041Z,1021.18
2019-02-23T09:52:49.038Z,1021.20
2019-02-23T09:53:49.038Z,1021.15
2019-02-23T09:54:49.038Z,1021.25
2019-02-23T09:55:49.030Z,1021.26
2019-02-23T09:56:49.028Z,1021.28
2019-02-23T09:57:49.026Z,1021.22
2019-02-23T09:58:49.026Z,1021.36
2019-02-23T09:59:49.023Z,1021.31
2019-02-23T10:00:49.022Z,1021.28
2019-02-23T10:01:49.022Z,1021.35
2019-02-23T10:02:49.021Z,1021.37
2019-02-23T10:03:49.017Z,1021.36
2019-02-23T10:04:49.016Z,1021.38
2019-02-23T10:05:49.015Z,1021.35
2019-02-23T10:06:49.015Z,1021.35
2019-02-23T10:07:49.012Z,1021.33
2019-02-23T10:08:49.011Z,1021.33
2019-02-23T10:09:49.011Z,1021.36
2019-02-23T10:10:49.009Z,1021.33
2019-02-23T10:11:49.007Z,1021.34
2019-02-23T10:12:49.006Z,1021.27
2019-02-23T10:13:49.009Z,1021.26
2019-02-23T10:14:49.005Z,1021.25
2019-02-23T10:15:49.002Z,1021.29
2019-02-23T10:16:49.002Z,1021.25
2019-02-23T10:17:49.001Z,1021.28
2019-02-23T10:18:49.001Z,1021.26
2019-02-23T10:19:48.999Z,1021.30
2019-02-23T10:20:48.999Z,1021.27
2019-02-23T10:21:48.999Z,1021.26
2019-02-23T10:22:48.999Z,1021.28
2019-02-23T10:23:48.998Z,1021.26
2019-02-23T10:24:48.997Z,1021.26
2019-02-23T10:25:49.001Z,1021.33
2019-02-23T10:26:48.997Z,1021.37
2019-02-23T10:27:48.996Z,1021.34
2019-02-23T10:28:48.996Z,1021.30
2019-02-23T10:29:48.996Z,1021.30
2019-02-23T10:30:48.996Z,1021.31
2019-02-23T10:31:48.993Z,1021.32
2019-02-23T10:32:48.993Z,1021.32
2019-02-23T10:33:48.992Z,1021.36
2019-02-23T10:34:48.991Z,1021.41
2019-02-23T10:35:48.989Z,1021.43
2019-02-23T10:36:48.988Z,1021.48
2019-02-23T10:37:48.994Z,1021.46
2019-02-23T10:38:48.986Z,1021.45
2019-02-23T10:39:48.984Z,1021.47
2019-02-23T10:40:48.987Z,1021.48
2019-02-23T10:41:48.985Z,1021.49
2019-02-23T10:42:48.981Z,1021.46
2019-02-23T10:43:49.019Z,1021.53
2019-02-23T10:44:48.982Z,1021.50
2019-02-23T10:45:48.978Z,1021.48
2019-02-23T10:46:48.977Z,1021.47
2019-02-23T10:47:50.309Z,1021.45
2019-02-23T10:48:48.974Z,1021.49
2019-02-23T10:49:48.975Z,1021.46
2019-02-23T10:50:48.974Z,1021.43
2019-02-23T10:51:48.972Z,1021.41
2019-02-23T10:52:48.973Z,1021.34
2019-02-23T10:53:48.969Z,1021.32
2019-02-23T10:54:48.968Z,1021.27
2019-02-23T10:55:48.967Z,1021.32
2019-02-23T10:56:48.967Z,1021.23
2019-02-23T10:57:48.967Z,1021.20
2019-02-23T10:58:48.966Z,1021.20
2019-02-23T10:59:48.965Z,1021.18
2019-02-23T11:00:48.971Z,1021.08
2019-02-23T11:01:48.965Z,1021.08
2019-02-23T11:02:48.964Z,1021.03
2019-02-23T11:03:48.963Z,1020.99
2019-02-23T11:04:48.963Z,1021.00
2019-02-23T11:05:48.963Z,1020.96
2019-02-23T11:06:48.963Z,1021.00
2019-02-23T11:07:49.026Z,1020.90
2019-02-23T11:08:48.960Z,1020.91
2019-02-23T11:09:48.959Z,1020.91
2019-02-23T11:10:48.958Z,1020.87
2019-02-23T11:11:48.956Z,1020.95
2019-02-23T11:12:49.028Z,1020.87
2019-02-23T11:13:48.952Z,1020.93
2019-02-23T11:14:48.950Z,1020.87
2019-02-23T11:15:48.948Z,1020.89
2019-02-23T11:16:48.946Z,1020.89
2019-02-23T11:17:48.944Z,1020.98
2019-02-23T11:18:48.942Z,1020.96
2019-02-23T11:19:48.939Z,1020.95
2019-02-23T11:20:48.940Z,1020.94
2019-02-23T11:21:48.936Z,1020.95
2019-02-23T11:22:48.938Z,1020.96
2019-02-23T11:23:48.938Z,1020.94
2019-02-23T11:24:48.930Z,1020.92
2019-02-23T11:25:48.929Z,1021.00
2019-02-23T11:26:48.926Z,1021.00
2019-02-23T11:27:48.928Z,1020.93
2019-02-23T11:28:48.922Z,1020.93
2019-02-23T11:29:48.922Z,1020.84
2019-02-23T11:30:48.917Z,1020.82
2019-02-23T11:31:48.914Z,1020.82
2019-02-23T11:32:48.912Z,1020.81
2019-02-23T11:33:48.910Z,1020.81
2019-02-23T11:34:48.909Z,1020.77
2019-02-23T11:35:48.906Z,1020.77
2019-02-23T11:36:48.905Z,1020.72
2019-02-23T11:37:48.902Z,1020.77
2019-02-23T11:38:48.900Z,1020.72
2019-02-23T11:39:48.897Z,1020.74
2019-02-23T11:40:48.897Z,1020.76
2019-02-23T11:41:48.893Z,1020.78
2019-02-23T11:42:48.891Z,1020.77
2019-02-23T11:43:48.897Z,1020.73
2019-02-23T11:44:48.886Z,1020.70
2019-02-23T11:45:48.884Z,1020.69
2019-02-23T11:46:59.804Z,1020.65
2019-02-23T11:47:48.880Z,1020.64
2019-02-23T11:48:48.877Z,1020.70
2019-02-23T11:49:48.874Z,1020.69
2019-02-23T11:50:48.872Z,1020.69
2019-02-23T11:51:48.868Z,1020.69
2019-02-23T11:52:48.866Z,1020.68
2019-02-23T11:53:54.924Z,1020.69
2019-02-23T11:54:48.861Z,1020.71
2019-02-23T11:55:48.859Z,1020.66
2019-02-23T11:56:48.854Z,1020.68
2019-02-23T11:57:48.852Z,1020.62
2019-02-23T11:58:48.849Z,1020.59
2019-02-23T11:59:48.846Z,1020.63
2019-02-23T12:00:48.843Z,1020.63
2019-02-23T12:01:48.841Z,1020.62
2019-02-23T12:02:52.603Z,1020.60
2019-02-23T12:03:48.834Z,1020.59
2019-02-23T12:04:48.832Z,1020.61
2019-02-23T12:05:48.829Z,1020.57